createdAt,value
2023-10-25T00:00:07.315Z,10.36
2023-10-25T00:01:07.317Z,10.38
2023-10-25T00:02:07.229Z,10.33
2023-10-25T00:03:07.298Z,10.33
2023-10-25T00:04:07.849Z,10.32
2023-10-25T00:05:07.232Z,10.27
2023-10-25T00:06:07.178Z,10.25
2023-10-25T00:07:07.249Z,10.23
2023-10-25T00:08:07.185Z,10.22
2023-10-25T00:09:07.157Z,10.18
2023-10-25T00:10:07.204Z,10.17
2023-10-25T00:11:07.201Z,10.14
2023-10-25T00:12:07.118Z,10.09
2023-10-25T00:13:07.144Z,10.05
2023-10-25T00:14:07.157Z,10.04
2023-10-25T00:15:07.893Z,10.01
2023-10-25T00:16:07.159Z,10.04
2023-10-25T00:17:07.079Z,10.05
2023-10-25T00:18:07.080Z,10.02
2023-10-25T00:19:07.087Z,9.99
2023-10-25T00:20:07.033Z,9.91
2023-10-25T00:21:07.032Z,9.90
2023-10-25T00:22:07.065Z,9.90
2023-10-25T00:23:08.521Z,9.89
2023-10-25T00:24:07.643Z,9.83
2023-10-25T00:25:07.044Z,9.83
2023-10-25T00:26:06.971Z,9.79
2023-10-25T00:27:06.971Z,9.81
2023-10-25T00:28:07.777Z,9.78
2023-10-25T00:29:06.945Z,9.76
2023-10-25T00:30:06.960Z,9.75
2023-10-25T00:31:07.118Z,9.75
2023-10-25T00:32:07.100Z,9.71
2023-10-25T00:33:06.938Z,9.72
2023-10-25T00:34:06.924Z,9.69
2023-10-25T00:35:06.883Z,9.65
2023-10-25T00:36:06.862Z,9.66
2023-10-25T00:37:06.904Z,9.61
2023-10-25T00:38:06.849Z,9.65
2023-10-25T00:39:06.844Z,9.66
2023-10-25T00:40:06.937Z,9.68
2023-10-25T00:41:06.824Z,9.69
2023-10-25T00:42:06.975Z,9.69
2023-10-25T00:43:06.820Z,9.71
2023-10-25T00:44:06.786Z,9.72
2023-10-25T00:45:06.773Z,9.66
2023-10-25T00:46:06.941Z,9.66
2023-10-25T00:47:06.808Z,9.66
2023-10-25T00:48:06.790Z,9.65
2023-10-25T00:49:06.789Z,9.60
2023-10-25T00:50:06.712Z,9.64
2023-10-25T00:51:06.734Z,9.65
2023-10-25T00:52:06.721Z,9.69
2023-10-25T00:53:06.691Z,9.66
2023-10-25T00:54:06.671Z,9.66
2023-10-25T00:55:06.743Z,9.71
2023-10-25T00:56:06.677Z,9.74
2023-10-25T00:57:06.663Z,9.76
2023-10-25T00:58:06.687Z,9.75
2023-10-25T00:59:06.639Z,9.78
2023-10-25T01:00:06.608Z,9.78
2023-10-25T01:01:06.659Z,9.79
2023-10-25T01:02:06.665Z,9.81
2023-10-25T01:03:06.659Z,9.84
2023-10-25T01:04:06.691Z,9.83
2023-10-25T01:05:06.551Z,9.78
2023-10-25T01:06:06.551Z,9.74
2023-10-25T01:07:06.581Z,9.72
2023-10-25T01:08:06.517Z,9.66
2023-10-25T01:09:06.524Z,9.64
2023-10-25T01:10:06.546Z,9.57
2023-10-25T01:11:06.496Z,9.56
2023-10-25T01:12:06.497Z,9.53
2023-10-25T01:13:06.545Z,9.51
2023-10-25T01:14:06.471Z,9.50
2023-10-25T01:15:06.467Z,9.53
2023-10-25T01:16:06.644Z,9.54
2023-10-25T01:17:06.577Z,9.54
2023-10-25T01:18:07.192Z,9.56
2023-10-25T01:19:06.506Z,9.56
2023-10-25T01:20:06.405Z,9.60
2023-10-25T01:21:06.405Z,9.60
2023-10-25T01:22:06.463Z,9.58
2023-10-25T01:23:06.370Z,9.60
2023-10-25T01:24:06.884Z,9.57
2023-10-25T01:25:06.405Z,9.54
2023-10-25T01:26:06.348Z,9.57
2023-10-25T01:27:06.332Z,9.56
2023-10-25T01:28:06.392Z,9.53
2023-10-25T01:29:06.310Z,9.50
2023-10-25T01:30:06.304Z,9.53
2023-10-25T01:31:06.381Z,9.54
2023-10-25T01:32:06.398Z,9.57
2023-10-25T01:33:06.314Z,9.60
2023-10-25T01:34:06.297Z,9.60
2023-10-25T01:35:06.248Z,9.64
2023-10-25T01:36:06.234Z,9.68
2023-10-25T01:37:06.270Z,9.66
2023-10-25T01:38:06.208Z,9.68
2023-10-25T01:39:06.208Z,9.72
2023-10-25T01:40:06.298Z,9.75
2023-10-25T01:41:06.181Z,9.78
2023-10-25T01:42:06.174Z,9.76
2023-10-25T01:43:06.277Z,9.76
2023-10-25T01:44:06.153Z,9.76
2023-10-25T01:45:06.135Z,9.75
2023-10-25T01:46:06.219Z,9.72
2023-10-25T01:47:06.141Z,9.75
2023-10-25T01:48:06.123Z,9.74
2023-10-25T01:49:06.143Z,9.69
2023-10-25T01:50:06.095Z,9.68
2023-10-25T01:51:06.074Z,9.68
2023-10-25T01:52:06.082Z,9.65
2023-10-25T01:53:06.055Z,9.68
2023-10-25T01:54:06.047Z,9.64
2023-10-25T01:55:06.086Z,9.66
2023-10-25T01:56:06.045Z,9.65
2023-10-25T01:57:06.013Z,9.61
2023-10-25T01:58:06.017Z,9.60
2023-10-25T01:59:05.996Z,9.60
2023-10-25T02:00:05.981Z,9.58
2023-10-25T02:01:06.025Z,9.56
2023-10-25T02:02:06.026Z,9.56
2023-10-25T02:03:05.988Z,9.51
2023-10-25T02:04:06.080Z,9.53
2023-10-25T02:05:05.931Z,9.53
2023-10-25T02:06:05.918Z,9.57
2023-10-25T02:07:05.939Z,9.51
2023-10-25T02:08:05.911Z,9.50
2023-10-25T02:09:05.882Z,9.51
2023-10-25T02:10:05.915Z,9.48
2023-10-25T02:11:05.856Z,9.46
2023-10-25T02:12:05.855Z,9.46
2023-10-25T02:13:05.873Z,9.39
2023-10-25T02:14:05.834Z,9.33
2023-10-25T02:15:05.809Z,9.33
2023-10-25T02:16:05.874Z,9.29
2023-10-25T02:17:05.842Z,9.24
2023-10-25T02:18:05.892Z,9.21
2023-10-25T02:19:05.820Z,9.21
2023-10-25T02:20:05.753Z,9.15
2023-10-25T02:21:05.738Z,9.10
2023-10-25T02:22:05.779Z,9.02
2023-10-25T02:23:05.719Z,8.96
2023-10-25T02:24:05.716Z,8.92
2023-10-25T02:25:05.737Z,8.91
2023-10-25T02:26:05.710Z,8.86
2023-10-25T02:27:05.670Z,8.83
2023-10-25T02:28:05.699Z,8.83
2023-10-25T02:29:05.649Z,8.81
2023-10-25T02:30:05.650Z,8.79
2023-10-25T02:31:05.747Z,8.71
2023-10-25T02:32:05.664Z,8.68
2023-10-25T02:33:05.653Z,8.63
2023-10-25T02:34:05.670Z,8.61
2023-10-25T02:35:05.594Z,8.59
2023-10-25T02:36:05.591Z,8.58
2023-10-25T02:37:05.702Z,8.58
2023-10-25T02:38:05.562Z,8.56
2023-10-25T02:39:05.537Z,8.50
2023-10-25T02:40:05.569Z,8.50
2023-10-25T02:41:05.518Z,8.48
2023-10-25T02:42:05.521Z,8.47
2023-10-25T02:43:05.548Z,8.47
2023-10-25T02:44:05.497Z,8.43
2023-10-25T02:45:05.478Z,8.38
2023-10-25T02:46:05.582Z,8.38
2023-10-25T02:47:05.463Z,8.37
2023-10-25T02:48:05.470Z,8.29
2023-10-25T02:49:05.472Z,8.23
2023-10-25T02:50:05.428Z,8.20
2023-10-25T02:51:05.431Z,8.15
2023-10-25T02:52:05.481Z,8.08
2023-10-25T02:53:05.390Z,8.07
2023-10-25T02:54:05.378Z,8.04
2023-10-25T02:55:05.414Z,8.00
2023-10-25T02:56:05.434Z,7.98
2023-10-25T02:57:05.353Z,8.00
2023-10-25T02:58:05.379Z,7.98
2023-10-25T02:59:05.328Z,8.01
2023-10-25T03:00:05.318Z,7.98
2023-10-25T03:01:06.144Z,7.95
2023-10-25T03:02:05.332Z,7.95
2023-10-25T03:03:05.390Z,7.93
2023-10-25T03:04:05.309Z,7.92
2023-10-25T03:05:05.275Z,7.86
2023-10-25T03:06:05.251Z,7.80
2023-10-25T03:07:05.259Z,7.77
2023-10-25T03:08:05.222Z,7.74
2023-10-25T03:09:05.228Z,7.68
2023-10-25T03:10:05.230Z,7.61
2023-10-25T03:11:05.199Z,7.58
2023-10-25T03:12:05.192Z,7.57
2023-10-25T03:13:05.260Z,7.60
2023-10-25T03:14:05.215Z,7.69
2023-10-25T03:15:05.158Z,7.72
2023-10-25T03:16:05.208Z,7.68
2023-10-25T03:17:05.120Z,7.61
2023-10-25T03:18:05.310Z,7.61
2023-10-25T03:19:05.190Z,7.57
2023-10-25T03:20:05.104Z,7.57
2023-10-25T03:21:05.122Z,7.60
2023-10-25T03:22:05.116Z,7.60
2023-10-25T03:23:05.091Z,7.52
2023-10-25T03:24:05.055Z,7.49
2023-10-25T03:25:05.083Z,7.48
2023-10-25T03:26:05.037Z,7.45
2023-10-25T03:27:05.024Z,7.49
2023-10-25T03:28:05.112Z,7.45
2023-10-25T03:29:05.003Z,7.45
2023-10-25T03:30:05.005Z,7.42
2023-10-25T03:31:05.106Z,7.43
2023-10-25T03:32:05.851Z,7.42
2023-10-25T03:33:05.001Z,7.37
2023-10-25T03:34:05.045Z,7.34
2023-10-25T03:35:04.940Z,7.31
2023-10-25T03:36:04.956Z,7.31
2023-10-25T03:37:04.984Z,7.31
2023-10-25T03:38:04.924Z,7.31
2023-10-25T03:39:04.899Z,7.32
2023-10-25T03:40:04.940Z,7.42
2023-10-25T03:41:04.892Z,7.39
2023-10-25T03:42:04.887Z,7.45
2023-10-25T03:43:04.925Z,7.50
2023-10-25T03:44:04.855Z,7.52
2023-10-25T03:45:04.960Z,7.60
2023-10-25T03:46:04.900Z,7.67
2023-10-25T03:47:04.866Z,7.64
2023-10-25T03:48:04.939Z,7.58
2023-10-25T03:49:04.847Z,7.58
2023-10-25T03:50:05.599Z,7.50
2023-10-25T03:51:04.776Z,7.53
2023-10-25T03:52:04.810Z,7.49
2023-10-25T03:53:04.759Z,7.61
2023-10-25T03:54:05.053Z,7.60
2023-10-25T03:55:04.771Z,7.64
2023-10-25T03:56:04.778Z,7.68
2023-10-25T03:57:04.710Z,7.77
2023-10-25T03:58:04.731Z,7.85
2023-10-25T03:59:04.686Z,7.82
2023-10-25T04:00:04.683Z,7.82
2023-10-25T04:01:06.235Z,7.79
2023-10-25T04:02:04.761Z,7.71
2023-10-25T04:03:04.720Z,7.77
2023-10-25T04:04:04.740Z,7.77
2023-10-25T04:05:04.621Z,7.77
2023-10-25T04:06:04.624Z,7.69
2023-10-25T04:07:04.676Z,7.58
2023-10-25T04:08:04.607Z,7.52
2023-10-25T04:09:04.585Z,7.48
2023-10-25T04:10:04.627Z,7.42
2023-10-25T04:11:04.565Z,7.40
2023-10-25T04:12:04.550Z,7.39
2023-10-25T04:13:04.558Z,7.35
2023-10-25T04:14:04.545Z,7.34
2023-10-25T04:15:04.551Z,7.32
2023-10-25T04:16:04.538Z,7.35
2023-10-25T04:17:05.373Z,7.35
2023-10-25T04:18:04.589Z,7.32
2023-10-25T04:19:04.559Z,7.35
2023-10-25T04:20:04.487Z,7.35
2023-10-25T04:21:04.688Z,7.32
2023-10-25T04:22:04.475Z,7.30
2023-10-25T04:23:04.438Z,7.27
2023-10-25T04:24:04.428Z,7.28
2023-10-25T04:25:04.632Z,7.27
2023-10-25T04:26:04.411Z,7.21
2023-10-25T04:27:04.400Z,7.23
2023-10-25T04:28:04.398Z,7.23
2023-10-25T04:29:04.365Z,7.23
2023-10-25T04:30:06.750Z,7.23
2023-10-25T04:31:04.466Z,7.23
2023-10-25T04:32:04.439Z,7.24
2023-10-25T04:33:04.367Z,7.28
2023-10-25T04:34:04.325Z,7.28
2023-10-25T04:35:04.305Z,7.28
2023-10-25T04:36:04.289Z,7.28
2023-10-25T04:37:04.321Z,7.25
2023-10-25T04:38:04.282Z,7.21
2023-10-25T04:39:04.259Z,7.25
2023-10-25T04:40:04.278Z,7.34
2023-10-25T04:41:04.238Z,7.39
2023-10-25T04:42:05.036Z,7.40
2023-10-25T04:43:04.297Z,7.42
2023-10-25T04:44:04.229Z,7.40
2023-10-25T04:45:04.190Z,7.40
2023-10-25T04:46:04.279Z,7.35
2023-10-25T04:47:04.265Z,7.30
2023-10-25T04:48:04.226Z,7.23
2023-10-25T04:49:04.202Z,7.15
2023-10-25T04:50:04.139Z,7.12
2023-10-25T04:51:04.132Z,7.10
2023-10-25T04:52:04.171Z,7.05
2023-10-25T04:53:04.116Z,7.03
2023-10-25T04:54:04.106Z,6.97
2023-10-25T04:55:04.229Z,6.98
2023-10-25T04:56:04.081Z,6.95
2023-10-25T04:57:04.073Z,6.92
2023-10-25T04:58:04.089Z,6.92
2023-10-25T04:59:04.093Z,6.91
2023-10-25T05:00:04.037Z,6.91
2023-10-25T05:01:04.114Z,6.91
2023-10-25T05:02:04.017Z,6.95
2023-10-25T05:03:04.038Z,6.92
2023-10-25T05:04:04.096Z,6.89
2023-10-25T05:05:03.969Z,6.85
2023-10-25T05:06:03.972Z,6.79
2023-10-25T05:07:04.072Z,6.76
2023-10-25T05:08:04.089Z,6.77
2023-10-25T05:09:03.967Z,6.77
2023-10-25T05:10:03.944Z,6.79
2023-10-25T05:11:03.908Z,6.85
2023-10-25T05:12:03.907Z,6.87
2023-10-25T05:13:03.925Z,6.84
2023-10-25T05:14:03.885Z,6.85
2023-10-25T05:15:03.886Z,6.88
2023-10-25T05:16:03.957Z,6.91
2023-10-25T05:17:03.925Z,6.92
2023-10-25T05:18:03.881Z,6.91
2023-10-25T05:19:03.873Z,6.89
2023-10-25T05:20:03.816Z,6.88
2023-10-25T05:21:03.910Z,6.89
2023-10-25T05:22:03.868Z,6.94
2023-10-25T05:23:03.831Z,6.95
2023-10-25T05:24:03.783Z,7.02
2023-10-25T05:25:03.799Z,7.02
2023-10-25T05:26:03.764Z,6.98
2023-10-25T05:27:03.748Z,6.91
2023-10-25T05:28:03.781Z,6.88
2023-10-25T05:29:03.722Z,6.89
2023-10-25T05:30:03.706Z,6.84
2023-10-25T05:31:03.846Z,6.79
2023-10-25T05:32:03.694Z,6.70
2023-10-25T05:33:03.695Z,6.70
2023-10-25T05:34:03.694Z,6.71
2023-10-25T05:35:03.660Z,6.76
2023-10-25T05:36:03.657Z,6.71
2023-10-25T05:37:03.690Z,6.64
2023-10-25T05:38:03.655Z,6.62
2023-10-25T05:39:03.623Z,6.56
2023-10-25T05:40:03.620Z,6.56
2023-10-25T05:41:03.625Z,6.55
2023-10-25T05:42:03.578Z,6.58
2023-10-25T05:43:03.609Z,6.61
2023-10-25T05:44:04.352Z,6.61
2023-10-25T05:45:03.566Z,6.61
2023-10-25T05:46:03.579Z,6.64
2023-10-25T05:47:03.678Z,6.62
2023-10-25T05:48:04.369Z,6.59
2023-10-25T05:49:03.537Z,6.59
2023-10-25T05:50:03.505Z,6.61
2023-10-25T05:51:03.493Z,6.67
2023-10-25T05:52:03.546Z,6.71
2023-10-25T05:53:05.446Z,6.69
2023-10-25T05:54:03.459Z,6.70
2023-10-25T05:55:03.465Z,6.76
2023-10-25T05:56:03.439Z,6.77
2023-10-25T05:57:03.434Z,6.73
2023-10-25T05:58:03.474Z,6.76
2023-10-25T05:59:03.413Z,6.73
2023-10-25T06:00:03.413Z,6.71
2023-10-25T06:01:03.415Z,6.71
2023-10-25T06:02:03.435Z,6.66
2023-10-25T06:03:06.115Z,6.64
2023-10-25T06:04:03.457Z,6.61
2023-10-25T06:05:07.447Z,6.59
2023-10-25T06:06:05.135Z,6.55
2023-10-25T06:07:03.340Z,6.54
2023-10-25T06:08:03.314Z,6.54
2023-10-25T06:09:03.298Z,6.52
2023-10-25T06:10:03.327Z,6.55
2023-10-25T06:11:03.288Z,6.56
2023-10-25T06:12:03.271Z,6.56
2023-10-25T06:13:03.273Z,6.62
2023-10-25T06:14:03.244Z,6.66
2023-10-25T06:15:03.252Z,6.61
2023-10-25T06:16:03.389Z,6.66
2023-10-25T06:17:03.330Z,6.70
2023-10-25T06:18:03.231Z,6.74
2023-10-25T06:19:03.219Z,6.80
2023-10-25T06:20:03.198Z,6.77
2023-10-25T06:21:03.208Z,6.77
2023-10-25T06:22:03.210Z,6.79
2023-10-25T06:23:03.153Z,6.84
2023-10-25T06:24:03.153Z,6.87
2023-10-25T06:25:03.160Z,6.89
2023-10-25T06:26:03.131Z,6.92
2023-10-25T06:27:03.113Z,6.99
2023-10-25T06:28:03.130Z,7.09
2023-10-25T06:29:03.111Z,7.13
2023-10-25T06:30:03.082Z,7.23
2023-10-25T06:31:03.111Z,7.53
2023-10-25T06:32:03.124Z,7.55
2023-10-25T06:33:03.108Z,7.55
2023-10-25T06:34:03.100Z,7.55
2023-10-25T06:35:03.030Z,7.57
2023-10-25T06:36:03.055Z,7.57
2023-10-25T06:37:03.054Z,7.50
2023-10-25T06:38:03.008Z,7.49
2023-10-25T06:39:02.992Z,7.48
2023-10-25T06:40:03.006Z,7.53
2023-10-25T06:41:02.981Z,7.53
2023-10-25T06:42:02.970Z,7.55
2023-10-25T06:43:02.970Z,7.61
2023-10-25T06:44:02.954Z,7.67
2023-10-25T06:45:02.918Z,7.68
2023-10-25T06:46:04.072Z,7.74
2023-10-25T06:47:02.975Z,7.77
2023-10-25T06:48:03.010Z,7.77
2023-10-25T06:49:02.951Z,7.85
2023-10-25T06:50:02.880Z,7.89
2023-10-25T06:51:03.171Z,7.95
2023-10-25T06:52:03.154Z,8.02
2023-10-25T06:53:02.847Z,8.02
2023-10-25T06:54:02.845Z,8.11
2023-10-25T06:55:03.678Z,8.12
2023-10-25T06:56:02.875Z,8.23
2023-10-25T06:57:02.901Z,8.29
2023-10-25T06:58:02.844Z,8.37
2023-10-25T06:59:02.802Z,8.45
2023-10-25T07:00:03.598Z,8.56
2023-10-25T07:01:06.536Z,8.70
2023-10-25T07:02:02.791Z,8.84
2023-10-25T07:03:02.930Z,8.96
2023-10-25T07:04:03.625Z,9.10
2023-10-25T07:05:02.768Z,9.17
2023-10-25T07:06:02.695Z,9.24
2023-10-25T07:07:02.745Z,9.33
2023-10-25T07:08:02.750Z,9.48
2023-10-25T07:09:02.678Z,9.58
2023-10-25T07:10:02.688Z,9.75
2023-10-25T07:11:02.656Z,9.87
2023-10-25T07:12:02.649Z,9.94
2023-10-25T07:13:02.657Z,10.04
2023-10-25T07:14:02.624Z,10.12
2023-10-25T07:15:02.595Z,10.25
2023-10-25T07:16:02.654Z,10.30
2023-10-25T07:17:02.666Z,10.41
2023-10-25T07:18:02.629Z,10.47
2023-10-25T07:19:02.588Z,10.56
2023-10-25T07:20:02.703Z,10.59
2023-10-25T07:21:02.538Z,10.67
2023-10-25T07:22:02.560Z,10.68
2023-10-25T07:23:02.510Z,10.74
2023-10-25T07:24:02.503Z,10.71
2023-10-25T07:25:02.587Z,10.78
2023-10-25T07:26:02.485Z,10.88
2023-10-25T07:27:02.474Z,10.97
2023-10-25T07:28:02.519Z,11.07
2023-10-25T07:29:02.466Z,11.22
2023-10-25T07:30:02.483Z,11.32
2023-10-25T07:31:02.492Z,11.39
2023-10-25T07:32:02.486Z,11.35
2023-10-25T07:33:02.435Z,11.36
2023-10-25T07:34:02.421Z,11.43
2023-10-25T07:35:02.422Z,11.36
2023-10-25T07:36:02.374Z,11.29
2023-10-25T07:37:02.396Z,11.36
2023-10-25T07:38:02.363Z,11.27
2023-10-25T07:39:02.351Z,11.27
2023-10-25T07:40:02.457Z,11.35
2023-10-25T07:41:02.364Z,11.47
2023-10-25T07:42:02.315Z,11.58
2023-10-25T07:43:02.332Z,11.65
2023-10-25T07:44:02.313Z,11.65
2023-10-25T07:45:02.313Z,11.79
2023-10-25T07:46:02.356Z,11.85
2023-10-25T07:47:02.362Z,11.95
2023-10-25T07:48:02.457Z,11.98
2023-10-25T07:49:03.163Z,11.91
2023-10-25T07:50:02.217Z,11.86
2023-10-25T07:51:02.218Z,11.70
2023-10-25T07:52:02.276Z,11.72
2023-10-25T07:53:02.198Z,11.76
2023-10-25T07:54:02.175Z,11.82
2023-10-25T07:55:08.958Z,11.88
2023-10-25T07:59:02.163Z,11.95
2023-10-25T08:00:02.108Z,11.91
2023-10-25T08:01:02.138Z,11.91
2023-10-25T08:02:02.896Z,11.90
2023-10-25T08:03:02.189Z,11.91
2023-10-25T08:04:02.133Z,11.99
2023-10-25T08:05:02.072Z,12.01
2023-10-25T08:06:02.121Z,12.05
2023-10-25T08:07:02.061Z,12.05
2023-10-25T08:08:02.041Z,12.07
2023-10-25T08:09:02.061Z,12.20
2023-10-25T08:10:01.998Z,12.23
2023-10-25T08:11:02.010Z,12.29
2023-10-25T08:12:01.998Z,12.41
2023-10-25T08:13:01.981Z,12.53
2023-10-25T08:14:01.960Z,12.67
2023-10-25T08:15:02.028Z,12.72
2023-10-25T08:16:02.341Z,12.90
2023-10-25T08:17:01.953Z,13.11
2023-10-25T08:18:01.988Z,13.23
2023-10-25T08:19:01.922Z,13.29
2023-10-25T08:20:02.714Z,13.32
2023-10-25T08:21:01.967Z,13.38
2023-10-25T08:22:01.874Z,13.36
2023-10-25T08:23:01.871Z,13.42
2023-10-25T08:24:01.850Z,13.54
2023-10-25T08:25:01.871Z,13.60
2023-10-25T08:26:01.963Z,13.60
2023-10-25T08:27:01.834Z,13.67
2023-10-25T08:28:01.817Z,13.55
2023-10-25T08:29:01.814Z,13.42
2023-10-25T08:30:01.813Z,13.29
2023-10-25T08:31:01.811Z,13.15
2023-10-25T08:32:01.758Z,13.15
2023-10-25T08:33:01.834Z,12.93
2023-10-25T08:34:01.742Z,12.90
2023-10-25T08:35:01.777Z,12.83
2023-10-25T08:36:01.786Z,12.90
2023-10-25T08:37:01.721Z,12.82
2023-10-25T08:38:01.694Z,12.92
2023-10-25T08:39:01.753Z,13.08
2023-10-25T08:40:01.805Z,13.17
2023-10-25T08:41:01.670Z,13.15
2023-10-25T08:42:01.664Z,13.03
2023-10-25T08:43:01.648Z,13.01
2023-10-25T08:44:01.841Z,13.03
2023-10-25T08:45:01.670Z,13.01
2023-10-25T08:46:01.651Z,13.03
2023-10-25T08:47:01.713Z,13.03
2023-10-25T08:48:02.533Z,13.10
2023-10-25T08:49:01.589Z,13.15
2023-10-25T08:50:01.583Z,13.20
2023-10-25T08:51:01.776Z,13.22
2023-10-25T08:52:01.546Z,13.22
2023-10-25T08:53:02.519Z,13.19
2023-10-25T08:54:01.626Z,13.17
2023-10-25T08:55:01.518Z,13.12
2023-10-25T08:56:01.503Z,13.14
2023-10-25T08:57:01.567Z,13.19
2023-10-25T08:58:01.487Z,13.26
2023-10-25T08:59:01.480Z,13.14
2023-10-25T09:00:01.485Z,13.11
2023-10-25T09:01:01.841Z,13.17
2023-10-25T09:02:01.629Z,13.23
2023-10-25T09:03:01.505Z,13.15
2023-10-25T09:04:01.565Z,13.20
2023-10-25T09:05:01.519Z,13.28
2023-10-25T09:06:01.464Z,13.26
2023-10-25T09:07:01.435Z,13.22
2023-10-25T09:08:01.374Z,13.25
2023-10-25T09:09:01.407Z,13.41
2023-10-25T09:10:01.413Z,13.32
2023-10-25T09:11:01.337Z,13.26
2023-10-25T09:12:02.198Z,13.28
2023-10-25T09:13:01.313Z,13.42
2023-10-25T09:14:01.328Z,13.51
2023-10-25T09:15:01.392Z,13.57
2023-10-25T09:16:01.359Z,13.64
2023-10-25T09:17:01.285Z,13.79
2023-10-25T09:18:01.340Z,13.84
2023-10-25T09:19:01.298Z,13.95
2023-10-25T09:20:01.278Z,13.96
2023-10-25T09:21:11.409Z,14.04
2023-10-25T09:22:02.209Z,13.92
2023-10-25T09:23:01.209Z,14.03
2023-10-25T09:24:01.222Z,14.03
2023-10-25T09:25:01.185Z,13.66
2023-10-25T09:26:01.218Z,13.49
2023-10-25T09:27:01.215Z,13.60
2023-10-25T09:28:01.158Z,13.69
2023-10-25T09:29:01.141Z,13.66
2023-10-25T09:30:04.146Z,13.63
2023-10-25T09:31:01.201Z,13.69
2023-10-25T09:32:01.124Z,13.81
2023-10-25T09:33:01.187Z,13.81
2023-10-25T09:34:01.102Z,13.92
2023-10-25T09:35:01.098Z,14.09
2023-10-25T09:36:01.144Z,14.24
2023-10-25T09:37:01.064Z,14.27
2023-10-25T09:38:01.055Z,14.29
2023-10-25T09:39:01.075Z,14.35
2023-10-25T09:40:01.033Z,14.45
2023-10-25T09:41:01.021Z,14.50
2023-10-25T09:42:01.043Z,14.57
2023-10-25T09:43:01.198Z,14.39
2023-10-25T09:44:01.069Z,14.15
2023-10-25T09:45:01.021Z,14.21
2023-10-25T09:46:01.097Z,14.24
2023-10-25T09:47:00.955Z,14.32
2023-10-25T09:48:01.049Z,14.29
2023-10-25T09:49:00.947Z,14.35
2023-10-25T09:50:00.929Z,14.37
2023-10-25T09:51:00.948Z,14.47
2023-10-25T09:52:00.933Z,14.64
2023-10-25T09:53:00.874Z,14.81
2023-10-25T09:54:00.901Z,14.86
2023-10-25T09:55:00.863Z,15.02
2023-10-25T09:56:00.883Z,15.23
2023-10-25T09:57:00.915Z,15.39
2023-10-25T09:58:00.833Z,15.19
2023-10-25T09:59:00.821Z,15.11
2023-10-25T10:00:00.881Z,15.41
2023-10-25T10:01:00.881Z,16.28
2023-10-25T10:02:00.867Z,16.89
2023-10-25T10:03:00.912Z,17.93
2023-10-25T10:04:00.931Z,18.66
2023-10-25T10:05:00.748Z,18.60
2023-10-25T10:06:00.794Z,18.18
2023-10-25T10:07:00.752Z,17.49
2023-10-25T10:08:00.730Z,17.43
2023-10-25T10:09:00.750Z,17.26
2023-10-25T10:10:00.705Z,17.21
2023-10-25T10:11:00.691Z,16.96
2023-10-25T10:12:01.356Z,17.46
2023-10-25T10:13:00.670Z,17.34
2023-10-25T10:14:00.668Z,17.25
2023-10-25T10:15:00.993Z,17.64
2023-10-25T10:16:00.858Z,17.84
2023-10-25T10:17:00.625Z,17.92
2023-10-25T10:18:00.719Z,17.72
2023-10-25T10:19:00.936Z,17.66
2023-10-25T10:20:00.601Z,17.78
2023-10-25T10:21:00.676Z,18.03
2023-10-25T10:22:00.573Z,18.52
2023-10-25T10:23:00.916Z,18.26
2023-10-25T10:24:00.638Z,17.72
2023-10-25T10:25:00.564Z,18.63
2023-10-25T10:26:00.545Z,19.88
2023-10-25T10:27:00.558Z,20.23
2023-10-25T10:28:00.525Z,19.95
2023-10-25T10:29:01.908Z,19.39
2023-10-25T10:30:00.587Z,18.69
2023-10-25T10:31:00.512Z,18.32
2023-10-25T10:32:00.560Z,17.77
2023-10-25T10:33:00.514Z,17.44
2023-10-25T10:34:00.455Z,17.31
2023-10-25T10:35:00.432Z,17.11
2023-10-25T10:36:00.534Z,17.21
2023-10-25T10:37:00.417Z,17.33
2023-10-25T10:38:00.403Z,17.44
2023-10-25T10:39:00.413Z,17.48
2023-10-25T10:40:04.544Z,17.54
2023-10-25T10:41:01.380Z,17.01
2023-10-25T10:42:00.392Z,16.58
2023-10-25T10:43:00.359Z,16.70
2023-10-25T10:44:00.341Z,16.91
2023-10-25T10:45:00.535Z,17.12
2023-10-25T10:46:02.202Z,17.28
2023-10-25T10:47:00.325Z,17.38
2023-10-25T10:48:00.367Z,17.38
2023-10-25T10:49:00.293Z,17.28
2023-10-25T10:50:00.285Z,17.19
2023-10-25T10:51:00.347Z,17.11
2023-10-25T10:52:00.278Z,16.78
2023-10-25T10:53:00.299Z,16.82
2023-10-25T10:54:00.250Z,16.78
2023-10-25T10:55:00.227Z,16.91
2023-10-25T10:56:00.222Z,17.48
2023-10-25T10:57:00.324Z,17.38
2023-10-25T10:58:08.375Z,17.64
2023-10-25T10:59:01.183Z,18.82
2023-10-25T11:00:00.271Z,20.24
2023-10-25T11:01:00.172Z,21.29
2023-10-25T11:02:00.179Z,22.40
2023-10-25T11:03:00.161Z,22.82
2023-10-25T11:04:00.205Z,23.00
2023-10-25T11:05:00.139Z,22.80
2023-10-25T11:06:00.276Z,21.83
2023-10-25T11:07:00.226Z,20.99
2023-10-25T11:08:00.111Z,20.06
2023-10-25T11:09:00.150Z,19.91
2023-10-25T11:10:00.091Z,20.03
2023-10-25T11:11:00.077Z,20.26
2023-10-25T11:12:00.071Z,21.31
2023-10-25T11:13:00.054Z,22.46
2023-10-25T11:14:00.048Z,23.38
2023-10-25T11:15:00.287Z,22.10
2023-10-25T11:16:00.017Z,21.52
2023-10-25T11:16:59.997Z,21.24
2023-10-25T11:18:00.368Z,20.35
2023-10-25T11:18:59.968Z,19.95
2023-10-25T11:19:59.968Z,19.78
2023-10-25T11:20:59.978Z,19.39
2023-10-25T11:21:59.948Z,19.14
2023-10-25T11:22:59.922Z,19.55
2023-10-25T11:23:59.954Z,20.35
2023-10-25T11:24:59.911Z,21.92
2023-10-25T11:26:00.072Z,21.54
2023-10-25T11:27:00.059Z,21.12
2023-10-25T11:27:59.900Z,22.24
2023-10-25T11:28:59.872Z,23.32
2023-10-25T11:29:59.913Z,24.39
2023-10-25T11:30:59.845Z,25.03
2023-10-25T11:31:59.850Z,24.83
2023-10-25T11:32:59.962Z,25.36
2023-10-25T11:33:59.841Z,25.95
2023-10-25T11:34:59.818Z,25.92
2023-10-25T11:35:59.825Z,25.60
2023-10-25T11:36:59.788Z,25.15
2023-10-25T11:37:59.784Z,23.94
2023-10-25T11:38:59.781Z,22.18
2023-10-25T11:39:59.767Z,21.28
2023-10-25T11:40:59.766Z,20.85
2023-10-25T11:41:59.783Z,20.52
2023-10-25T11:42:59.730Z,20.66
2023-10-25T11:43:59.735Z,20.64
2023-10-25T11:44:59.766Z,20.85
2023-10-25T11:45:59.731Z,20.11
2023-10-25T11:46:59.699Z,19.65
2023-10-25T11:47:59.791Z,19.29
2023-10-25T11:48:59.675Z,19.08
2023-10-25T11:49:59.667Z,19.08
2023-10-25T11:50:59.641Z,19.22
2023-10-25T11:51:59.642Z,19.16
2023-10-25T11:52:59.626Z,19.13
2023-10-25T11:54:09.902Z,19.06
2023-10-25T11:55:00.618Z,19.02
2023-10-25T11:55:59.670Z,18.78
2023-10-25T11:56:59.598Z,18.69
2023-10-25T11:57:59.573Z,18.54
2023-10-25T11:58:59.559Z,18.39
2023-10-25T11:59:59.678Z,18.20
2023-10-25T12:00:59.564Z,17.82
2023-10-25T12:01:59.534Z,17.78
2023-10-25T12:03:00.190Z,17.90
2023-10-25T12:03:59.592Z,18.10
2023-10-25T12:04:59.518Z,18.55
2023-10-25T12:05:59.595Z,18.99
2023-10-25T12:06:59.476Z,19.14
2023-10-25T12:07:59.487Z,18.87
2023-10-25T12:08:59.487Z,18.76
2023-10-25T12:09:59.469Z,18.80
2023-10-25T12:10:59.453Z,18.75
2023-10-25T12:11:59.491Z,18.48
2023-10-25T12:12:59.418Z,18.37
2023-10-25T12:13:59.429Z,18.35
2023-10-25T12:14:59.451Z,18.45
2023-10-25T12:15:59.442Z,18.57
2023-10-25T12:16:59.378Z,19.54
2023-10-25T12:17:59.445Z,20.06
2023-10-25T12:18:59.348Z,20.02
2023-10-25T12:20:07.477Z,20.02
2023-10-25T12:21:00.387Z,20.24
2023-10-25T12:21:59.350Z,20.26
2023-10-25T12:22:59.333Z,19.99
2023-10-25T12:23:59.342Z,19.58
2023-10-25T12:24:59.295Z,19.48
2023-10-25T12:25:59.298Z,19.32
2023-10-25T12:26:59.331Z,19.10
2023-10-25T12:27:59.259Z,18.62
2023-10-25T12:28:59.271Z,18.26
2023-10-25T12:29:59.302Z,18.10
2023-10-25T12:30:59.782Z,18.00
2023-10-25T12:31:59.213Z,17.95
2023-10-25T12:32:59.280Z,17.96
2023-10-25T12:33:59.192Z,17.99
2023-10-25T12:34:59.175Z,17.99
2023-10-25T12:35:59.245Z,18.03
2023-10-25T12:36:59.153Z,18.05
2023-10-25T12:37:59.157Z,17.99
2023-10-25T12:38:59.248Z,17.86
2023-10-25T12:39:59.128Z,17.77
2023-10-25T12:40:59.109Z,17.68
2023-10-25T12:41:59.217Z,17.58
2023-10-25T12:42:59.096Z,17.48
2023-10-25T12:43:59.079Z,17.36
2023-10-25T12:44:59.086Z,17.28
2023-10-25T12:45:59.186Z,17.22
2023-10-25T12:46:59.046Z,17.19
2023-10-25T12:47:59.102Z,17.14
2023-10-25T12:48:59.030Z,17.16
2023-10-25T12:49:59.029Z,17.18
2023-10-25T12:50:59.049Z,17.23
2023-10-25T12:51:59.003Z,17.22
2023-10-25T12:52:58.982Z,17.26
2023-10-25T12:53:59.004Z,17.28
2023-10-25T12:54:58.969Z,17.26
2023-10-25T12:55:58.947Z,17.28
2023-10-25T12:56:58.980Z,17.19
2023-10-25T12:57:59.106Z,17.18
2023-10-25T12:58:58.926Z,17.19
2023-10-25T12:59:58.985Z,17.21
2023-10-25T13:00:58.934Z,17.26
2023-10-25T13:01:58.917Z,17.25
2023-10-25T13:02:58.967Z,17.25
2023-10-25T13:03:58.978Z,17.28
2023-10-25T13:04:58.959Z,17.33
2023-10-25T13:05:59.130Z,17.26
2023-10-25T13:06:58.839Z,17.18
2023-10-25T13:07:58.835Z,17.11
2023-10-25T13:08:58.834Z,17.11